Time;durP1;ratioP1;P1;durP2;ratioP2;P2;SDS_P1;SDS_P2;PMS_P1;PMS_P2;Temp;Humidity;BMP_temperature;BMP_pressure;BME280_temperature;BME280_humidity;BME280_pressure;Samples;Min_cycle;Max_cycle;Signal;HPM_P1;HPM_P2
2023/06/08 00:00:26;;;;;;;;;;;13.40;99.90;;;;;;5038892;28;19932;-58
2023/06/08 00:02:55;;;;;;;;;;;13.30;99.90;;;;;;5033402;28;19917;-57
2023/06/08 00:05:21;;;;;;;;;;;13.30;99.90;;;;;;5042375;28;19916;-58
2023/06/08 00:07:47;;;;;;;;;;;13.30;99.90;;;;;;5046950;28;19975;-58
2023/06/08 00:10:12;;;;;;;;;;;13.20;99.90;;;;;;5042032;28;20629;-58
2023/06/08 00:12:38;;;;;;;;;;;13.20;99.90;;;;;;5034579;28;19924;-57
2023/06/08 00:15:05;;;;;;;;;;;13.20;99.90;;;;;;5040870;28;19917;-57
2023/06/08 00:17:31;;;;;;;;;;;13.10;99.90;;;;;;5044435;28;19916;-56
2023/06/08 00:19:57;;;;;;;;;;;13.10;99.90;;;;;;5044246;28;19974;-57
2023/06/08 00:22:22;;;;;;;;;;;13.10;99.90;;;;;;5031355;28;19948;-57
2023/06/08 00:24:48;;;;;;;;;;;13.20;99.90;;;;;;5046338;28;19917;-57
2023/06/08 00:27:14;;;;;;;;;;;13.10;99.90;;;;;;5047298;28;19964;-57
2023/06/08 00:29:39;;;;;;;;;;;13.10;99.90;;;;;;5047724;28;20383;-54
2023/06/08 00:32:05;;;;;;;;;;;13.10;99.90;;;;;;5033699;28;19917;-54
2023/06/08 00:34:31;;;;;;;;;;;13.00;99.90;;;;;;5032826;28;19917;-57
2023/06/08 00:36:56;;;;;;;;;;;13.00;99.90;;;;;;5031658;28;19925;-56
2023/06/08 00:39:22;;;;;;;;;;;13.00;99.90;;;;;;5045853;28;20027;-57
2023/06/08 00:41:47;;;;;;;;;;;13.00;99.90;;;;;;5033509;28;19923;-58
2023/06/08 00:44:13;;;;;;;;;;;13.00;99.90;;;;;;5035636;28;19916;-57
2023/06/08 00:46:38;;;;;;;;;;;13.00;99.90;;;;;;5047073;28;19917;-57
2023/06/08 00:49:05;;;;;;;;;;;12.90;99.90;;;;;;5049445;28;20393;-55
2023/06/08 00:51:34;;;;;;;;;;;12.90;99.90;;;;;;5048414;28;19923;-58
2023/06/08 00:54:00;;;;;;;;;;;12.90;99.90;;;;;;5048561;28;19917;-55
2023/06/08 00:56:31;;;;;;;;;;;12.90;99.90;;;;;;5035855;28;19921;-57
2023/06/08 00:59:00;;;;;;;;;;;13.00;99.90;;;;;;5034074;28;20462;-56
2023/06/08 01:01:30;;;;;;;;;;;12.90;99.90;;;;;;5042737;28;19917;-59
2023/06/08 01:04:05;;;;;;;;;;;13.00;99.90;;;;;;5048385;28;19917;-56
2023/06/08 01:06:38;;;;;;;;;;;13.00;99.90;;;;;;5037520;28;19962;-57
2023/06/08 01:09:35;;;;;;;;;;;13.00;99.90;;;;;;5031414;28;20360;-57
2023/06/08 01:12:19;;;;;;;;;;;13.00;99.90;;;;;;5019075;28;19924;-57
2023/06/08 01:14:57;;;;;;;;;;;13.00;99.90;;;;;;5036561;28;19999;-57
2023/06/08 01:17:26;;;;;;;;;;;13.00;99.90;;;;;;5031499;28;19928;-55
2023/06/08 01:19:56;;;;;;;;;;;12.90;99.90;;;;;;5035686;28;20382;-56
2023/06/08 01:22:34;;;;;;;;;;;12.90;99.90;;;;;;5046609;28;19916;-57
2023/06/08 01:25:00;;;;;;;;;;;12.80;99.90;;;;;;5031205;28;19917;-56
2023/06/08 01:27:26;;;;;;;;;;;12.80;99.90;;;;;;5045729;28;19928;-56
2023/06/08 01:29:54;;;;;;;;;;;12.80;99.90;;;;;;5048593;28;19923;-57
2023/06/08 01:32:20;;;;;;;;;;;12.80;99.90;;;;;;5045311;28;19916;-55
2023/06/08 01:34:46;;;;;;;;;;;12.80;99.90;;;;;;5049006;28;20019;-57
2023/06/08 01:37:29;;;;;;;;;;;12.80;99.90;;;;;;5036252;28;20293;-57
2023/06/08 01:39:57;;;;;;;;;;;12.90;99.90;;;;;;5033214;28;19920;-57
2023/06/08 01:42:24;;;;;;;;;;;12.90;99.90;;;;;;5042743;28;19920;-56
2023/06/08 01:45:00;;;;;;;;;;;12.90;99.90;;;;;;5042247;28;20294;-57
2023/06/08 01:47:31;;;;;;;;;;;12.90;99.90;;;;;;5034118;28;20386;-58
2023/06/08 01:49:57;;;;;;;;;;;12.90;99.90;;;;;;5031724;28;20410;-55
2023/06/08 01:52:23;;;;;;;;;;;12.80;99.90;;;;;;5037637;28;19917;-56
2023/06/08 01:54:48;;;;;;;;;;;12.80;99.90;;;;;;5031359;28;19924;-54
2023/06/08 01:57:14;;;;;;;;;;;12.80;99.90;;;;;;5040315;28;19921;-58
2023/06/08 01:59:39;;;;;;;;;;;12.80;99.90;;;;;;5047261;28;19916;-55
2023/06/08 02:02:05;;;;;;;;;;;12.80;99.90;;;;;;5044819;28;19923;-55
2023/06/08 02:04:30;;;;;;;;;;;12.80;99.90;;;;;;5048028;28;20062;-57
2023/06/08 02:06:56;;;;;;;;;;;12.80;99.90;;;;;;5042526;28;19920;-56
2023/06/08 02:09:21;;;;;;;;;;;12.80;99.90;;;;;;5031516;28;19924;-57
2023/06/08 02:11:47;;;;;;;;;;;12.70;99.90;;;;;;5039566;28;20003;-57
2023/06/08 02:14:12;;;;;;;;;;;12.80;99.90;;;;;;5029994;28;19917;-54
2023/06/08 02:16:38;;;;;;;;;;;12.80;99.90;;;;;;5040980;28;19917;-54
2023/06/08 02:19:04;;;;;;;;;;;12.80;99.90;;;;;;5033735;28;19916;-55
2023/06/08 02:21:29;;;;;;;;;;;12.70;99.90;;;;;;5034046;28;20100;-55
2023/06/08 02:23:54;;;;;;;;;;;12.70;99.90;;;;;;5048818;28;19917;-57
2023/06/08 02:26:22;;;;;;;;;;;12.80;99.90;;;;;;5047913;28;20289;-57
2023/06/08 02:28:47;;;;;;;;;;;12.80;99.90;;;;;;5030031;28;19928;-55
2023/06/08 02:31:13;;;;;;;;;;;12.80;99.90;;;;;;5031323;28;19917;-58
2023/06/08 02:33:38;;;;;;;;;;;12.80;99.90;;;;;;5047676;28;19917;-57
2023/06/08 02:36:06;;;;;;;;;;;12.80;99.90;;;;;;5048403;28;19925;-57
2023/06/08 02:38:31;;;;;;;;;;;12.80;99.90;;;;;;5035750;28;19917;-57
2023/06/08 02:40:57;;;;;;;;;;;12.80;99.90;;;;;;5035541;28;19927;-56
2023/06/08 02:43:22;;;;;;;;;;;12.80;99.90;;;;;;5044790;28;19925;-56
2023/06/08 02:45:48;;;;;;;;;;;12.70;99.90;;;;;;5052114;28;20443;-58
2023/06/08 02:48:13;;;;;;;;;;;12.70;99.90;;;;;;5046965;28;19920;-58
2023/06/08 02:50:39;;;;;;;;;;;12.70;99.90;;;;;;5051594;28;20358;-57
2023/06/08 02:53:04;;;;;;;;;;;12.70;99.90;;;;;;5041241;28;19956;-55
2023/06/08 02:55:34;;;;;;;;;;;12.70;99.90;;;;;;5033072;28;19917;-57
2023/06/08 02:58:02;;;;;;;;;;;12.70;99.90;;;;;;5041367;28;19917;-57
2023/06/08 03:00:29;;;;;;;;;;;12.60;99.90;;;;;;5049559;28;19967;-57
2023/06/08 03:02:56;;;;;;;;;;;12.60;99.90;;;;;;5035762;28;19952;-57
2023/06/08 03:05:24;;;;;;;;;;;12.70;99.90;;;;;;5032598;28;19916;-56
2023/06/08 03:07:49;;;;;;;;;;;12.70;99.90;;;;;;5040086;28;19966;-58
2023/06/08 03:10:15;;;;;;;;;;;12.70;99.90;;;;;;5049921;28;19928;-56
2023/06/08 03:12:41;;;;;;;;;;;12.70;99.90;;;;;;5036270;28;20288;-54
2023/06/08 03:15:06;;;;;;;;;;;12.70;99.90;;;;;;5051940;28;19920;-57
2023/06/08 03:17:32;;;;;;;;;;;12.60;99.90;;;;;;5047162;28;20494;-58
2023/06/08 03:19:59;;;;;;;;;;;12.60;99.90;;;;;;5033550;28;19917;-54
2023/06/08 03:22:25;;;;;;;;;;;12.60;99.90;;;;;;5034010;28;19921;-57
2023/06/08 03:24:51;;;;;;;;;;;12.60;99.90;;;;;;5051664;28;20390;-57
2023/06/08 03:27:16;;;;;;;;;;;12.60;99.90;;;;;;5039946;28;20015;-54
2023/06/08 03:29:42;;;;;;;;;;;12.60;99.90;;;;;;5036386;28;19974;-57
2023/06/08 03:32:08;;;;;;;;;;;12.50;99.90;;;;;;5033303;28;19932;-57
2023/06/08 03:34:34;;;;;;;;;;;12.50;99.90;;;;;;5046888;28;20014;-58
2023/06/08 03:37:00;;;;;;;;;;;12.50;99.90;;;;;;5048241;28;19924;-56
2023/06/08 03:39:25;;;;;;;;;;;12.50;99.90;;;;;;5045269;28;19921;-56
2023/06/08 03:41:51;;;;;;;;;;;12.40;99.90;;;;;;5041349;28;19925;-57
2023/06/08 03:44:16;;;;;;;;;;;12.40;99.90;;;;;;5038468;28;19917;-55
2023/06/08 03:46:42;;;;;;;;;;;12.40;99.90;;;;;;5034226;28;19956;-55
2023/06/08 03:49:07;;;;;;;;;;;12.40;99.90;;;;;;5039983;28;19921;-55
2023/06/08 03:51:33;;;;;;;;;;;12.40;99.90;;;;;;5044104;28;19960;-56
2023/06/08 03:53:58;;;;;;;;;;;12.30;99.90;;;;;;5039947;28;20011;-55
2023/06/08 03:56:25;;;;;;;;;;;12.30;99.90;;;;;;5048705;28;19920;-57
2023/06/08 03:58:51;;;;;;;;;;;12.30;99.90;;;;;;5037737;28;20390;-57
2023/06/08 04:01:17;;;;;;;;;;;12.30;99.90;;;;;;5042456;28;20011;-56
2023/06/08 04:03:43;;;;;;;;;;;12.20;99.90;;;;;;5036444;28;19925;-56
2023/06/08 04:06:08;;;;;;;;;;;12.30;99.90;;;;;;5049683;28;20392;-57
2023/06/08 04:08:35;;;;;;;;;;;12.30;99.90;;;;;;5047763;28;20456;-57
2023/06/08 04:11:00;;;;;;;;;;;12.20;99.90;;;;;;5033990;28;19917;-56
2023/06/08 04:13:26;;;;;;;;;;;12.20;99.90;;;;;;5039409;28;20011;-57
2023/06/08 04:15:52;;;;;;;;;;;12.20;99.90;;;;;;5046320;28;20255;-55
2023/06/08 04:18:17;;;;;;;;;;;12.20;99.90;;;;;;5039082;28;20306;-57
2023/06/08 04:20:43;;;;;;;;;;;12.20;99.90;;;;;;5032406;28;20197;-56
2023/06/08 04:23:11;;;;;;;;;;;12.20;99.90;;;;;;5038955;28;19970;-54
2023/06/08 04:25:36;;;;;;;;;;;12.30;99.90;;;;;;5046976;28;19917;-57
2023/06/08 04:28:02;;;;;;;;;;;12.30;99.90;;;;;;5036961;28;19921;-56
2023/06/08 04:30:28;;;;;;;;;;;12.30;99.90;;;;;;5032602;28;20385;-54
2023/06/08 04:32:54;;;;;;;;;;;12.30;99.90;;;;;;5035255;28;19932;-58
2023/06/08 04:35:19;;;;;;;;;;;12.30;99.90;;;;;;5049967;28;20266;-57
2023/06/08 04:37:44;;;;;;;;;;;12.40;99.90;;;;;;5042688;28;19917;-57
2023/06/08 04:40:10;;;;;;;;;;;12.40;99.90;;;;;;5050151;28;19917;-55
2023/06/08 04:42:38;;;;;;;;;;;12.40;99.90;;;;;;5048656;28;20294;-56
2023/06/08 04:45:04;;;;;;;;;;;12.40;99.90;;;;;;5031969;28;19935;-56
2023/06/08 04:47:31;;;;;;;;;;;12.40;99.90;;;;;;5034759;28;20374;-55
2023/06/08 04:49:57;;;;;;;;;;;12.50;99.90;;;;;;5032256;28;19920;-55
2023/06/08 04:52:22;;;;;;;;;;;12.50;99.90;;;;;;5031752;28;19917;-57
2023/06/08 04:54:52;;;;;;;;;;;12.50;99.90;;;;;;5049363;28;19921;-57
2023/06/08 04:57:19;;;;;;;;;;;12.50;99.90;;;;;;5037659;28;20395;-54
2023/06/08 04:59:45;;;;;;;;;;;12.50;99.90;;;;;;5045966;28;19921;-57
2023/06/08 05:02:10;;;;;;;;;;;12.60;99.90;;;;;;5049415;28;19951;-54
2023/06/08 05:04:36;;;;;;;;;;;12.60;99.90;;;;;;5036088;28;19924;-56
2023/06/08 05:07:01;;;;;;;;;;;12.60;99.90;;;;;;5043889;28;20005;-57
2023/06/08 05:09:27;;;;;;;;;;;12.60;99.90;;;;;;5037182;28;20339;-58
2023/06/08 05:11:52;;;;;;;;;;;12.70;99.90;;;;;;5036784;28;20540;-57
2023/06/08 05:14:18;;;;;;;;;;;12.70;99.90;;;;;;5046845;28;20390;-57
2023/06/08 05:16:43;;;;;;;;;;;12.80;99.90;;;;;;5046684;28;19917;-57
2023/06/08 05:19:11;;;;;;;;;;;12.80;99.90;;;;;;5047026;28;20007;-56
2023/06/08 05:21:39;;;;;;;;;;;12.80;99.90;;;;;;5048770;28;19916;-54
2023/06/08 05:24:05;;;;;;;;;;;12.90;99.90;;;;;;5046601;28;20129;-56
2023/06/08 05:26:30;;;;;;;;;;;13.00;99.90;;;;;;5047617;28;19962;-57
2023/06/08 05:28:56;;;;;;;;;;;13.00;99.90;;;;;;5042710;28;19935;-57
2023/06/08 05:31:22;;;;;;;;;;;13.10;99.90;;;;;;5031180;28;19925;-56
2023/06/08 05:33:47;;;;;;;;;;;13.10;99.90;;;;;;5034950;28;19924;-55
2023/06/08 05:36:13;;;;;;;;;;;13.10;99.90;;;;;;5032231;28;20362;-55
2023/06/08 05:38:38;;;;;;;;;;;13.10;99.90;;;;;;5032807;28;19921;-57
2023/06/08 05:41:03;;;;;;;;;;;13.20;99.90;;;;;;5048485;28;19967;-56
2023/06/08 05:43:29;;;;;;;;;;;13.30;99.90;;;;;;5046877;28;19936;-57
2023/06/08 05:45:54;;;;;;;;;;;13.30;99.90;;;;;;5048352;28;19936;-57
2023/06/08 05:48:20;;;;;;;;;;;13.30;99.90;;;;;;5048824;28;20259;-57
2023/06/08 05:50:45;;;;;;;;;;;13.40;99.90;;;;;;5031562;28;20437;-55
2023/06/08 05:53:11;;;;;;;;;;;13.50;99.90;;;;;;5031604;28;19970;-58
2023/06/08 05:55:41;;;;;;;;;;;13.50;99.90;;;;;;5046151;28;20304;-57
2023/06/08 05:58:07;;;;;;;;;;;13.50;99.90;;;;;;5046477;28;20070;-57
2023/06/08 06:00:33;;;;;;;;;;;13.50;99.90;;;;;;5035443;28;19916;-57
2023/06/08 06:02:58;;;;;;;;;;;13.60;99.90;;;;;;5047556;28;19917;-57
2023/06/08 06:05:24;;;;;;;;;;;13.60;99.90;;;;;;5044066;28;20416;-57
2023/06/08 06:07:49;;;;;;;;;;;13.70;99.90;;;;;;5045327;28;19966;-54
2023/06/08 06:10:15;;;;;;;;;;;13.80;99.90;;;;;;5040910;28;20054;-57
2023/06/08 06:12:40;;;;;;;;;;;13.90;99.90;;;;;;5033141;28;19927;-56
2023/06/08 06:15:06;;;;;;;;;;;13.90;99.90;;;;;;5036991;28;19917;-58
2023/06/08 06:17:32;;;;;;;;;;;14.00;99.90;;;;;;5034534;28;20394;-57
2023/06/08 06:19:57;;;;;;;;;;;14.00;99.90;;;;;;5036212;28;19923;-57
2023/06/08 06:22:23;;;;;;;;;;;14.10;99.90;;;;;;5046818;28;20302;-54
2023/06/08 06:24:48;;;;;;;;;;;14.10;99.90;;;;;;5040615;28;20288;-58
2023/06/08 06:27:14;;;;;;;;;;;14.20;99.90;;;;;;5046022;28;19935;-56
2023/06/08 06:29:39;;;;;;;;;;;14.20;99.90;;;;;;5042418;28;19917;-57
2023/06/08 06:32:05;;;;;;;;;;;14.30;99.90;;;;;;5037436;28;20004;-57
2023/06/08 06:34:30;;;;;;;;;;;14.30;99.90;;;;;;5032007;28;19924;-54
2023/06/08 06:36:59;;;;;;;;;;;14.30;99.90;;;;;;5046855;28;19927;-57
2023/06/08 06:39:25;;;;;;;;;;;14.40;99.90;;;;;;5039008;28;19921;-58
2023/06/08 06:41:50;;;;;;;;;;;14.50;99.90;;;;;;5031219;28;20489;-56
2023/06/08 06:44:16;;;;;;;;;;;14.60;99.90;;;;;;5030423;28;19921;-58
2023/06/08 06:46:41;;;;;;;;;;;14.60;99.90;;;;;;5047376;28;20301;-56
2023/06/08 06:49:07;;;;;;;;;;;14.70;99.90;;;;;;5044955;28;20332;-54
2023/06/08 06:51:32;;;;;;;;;;;14.80;99.90;;;;;;5044043;28;20381;-57
2023/06/08 06:53:58;;;;;;;;;;;14.80;99.90;;;;;;5047793;28;19916;-57
2023/06/08 06:56:23;;;;;;;;;;;14.90;99.90;;;;;;5040866;28;20376;-58
2023/06/08 06:58:49;;;;;;;;;;;15.00;99.90;;;;;;5046330;28;19923;-59
2023/06/08 07:01:18;;;;;;;;;;;15.00;99.90;;;;;;5043364;28;19927;-56
2023/06/08 07:03:44;;;;;;;;;;;15.10;99.90;;;;;;5047341;28;20385;-57
2023/06/08 07:06:10;;;;;;;;;;;15.20;99.90;;;;;;5044645;28;19917;-56
2023/06/08 07:08:35;;;;;;;;;;;15.20;99.90;;;;;;5035039;28;19936;-57
2023/06/08 07:11:01;;;;;;;;;;;15.30;99.90;;;;;;5037963;28;20490;-54
2023/06/08 07:13:27;;;;;;;;;;;15.40;99.90;;;;;;5045398;28;19924;-58
2023/06/08 07:15:53;;;;;;;;;;;15.50;99.90;;;;;;5036100;28;19924;-55
2023/06/08 07:18:19;;;;;;;;;;;15.50;99.90;;;;;;5029703;28;20018;-58
2023/06/08 07:20:44;;;;;;;;;;;15.60;99.90;;;;;;5034632;28;19924;-57
2023/06/08 07:23:10;;;;;;;;;;;15.70;99.90;;;;;;5031806;28;19917;-59
2023/06/08 07:25:37;;;;;;;;;;;15.80;99.90;;;;;;5043525;28;19917;-58
2023/06/08 07:28:03;;;;;;;;;;;15.90;99.90;;;;;;5049473;28;20047;-56
2023/06/08 07:30:30;;;;;;;;;;;15.90;99.90;;;;;;5049305;28;19936;-56
2023/06/08 07:32:55;;;;;;;;;;;16.00;99.90;;;;;;5036055;28;20025;-58
2023/06/08 07:35:21;;;;;;;;;;;16.00;99.90;;;;;;5052730;28;19956;-57
2023/06/08 07:37:47;;;;;;;;;;;16.20;99.90;;;;;;5044044;28;19929;-58
2023/06/08 07:40:13;;;;;;;;;;;16.20;99.90;;;;;;5051220;28;19917;-58
2023/06/08 07:42:38;;;;;;;;;;;16.30;99.90;;;;;;5038806;28;19925;-60
2023/06/08 07:45:04;;;;;;;;;;;16.40;99.90;;;;;;5039414;28;19927;-60
2023/06/08 07:47:30;;;;;;;;;;;16.50;99.90;;;;;;5045816;28;19928;-60
2023/06/08 07:49:56;;;;;;;;;;;16.60;99.90;;;;;;5038198;28;19920;-60
2023/06/08 07:52:22;;;;;;;;;;;16.60;99.90;;;;;;5039550;28;19924;-57
2023/06/08 07:54:48;;;;;;;;;;;16.70;99.90;;;;;;5048409;28;19916;-57
2023/06/08 07:57:13;;;;;;;;;;;16.80;99.90;;;;;;5043749;28;19925;-57
2023/06/08 07:59:39;;;;;;;;;;;16.80;99.90;;;;;;5047110;28;19923;-55
2023/06/08 08:02:08;;;;;;;;;;;16.90;99.90;;;;;;5043364;28;19920;-57
2023/06/08 08:04:33;;;;;;;;;;;17.00;99.90;;;;;;5050510;28;20016;-58
2023/06/08 08:09:29;;;;;;;10.95;5.32;;;17.00;99.90;;;;;;5096701;27;20328;-56
2023/06/08 08:11:55;;;;;;;9.30;4.97;;;17.10;99.90;;;;;;5095100;28;20052;-59
2023/06/08 08:14:20;;;;;;;18.38;5.82;;;17.10;99.90;;;;;;5073018;28;20041;-59
2023/06/08 08:16:46;;;;;;;15.95;5.13;;;17.10;99.90;;;;;;5066410;28;20058;-60
2023/06/08 08:19:11;;;;;;;9.18;5.55;;;17.10;99.90;;;;;;5067701;28;20072;-60
2023/06/08 08:21:37;;;;;;;11.82;6.05;;;17.10;99.90;;;;;;5073317;28;20083;-58
2023/06/08 08:24:03;;;;;;;13.82;5.97;;;17.10;99.90;;;;;;5075376;28;20032;-60
2023/06/08 08:26:28;;;;;;;12.55;6.28;;;17.10;99.90;;;;;;5066251;28;20045;-61
2023/06/08 08:28:57;;;;;;;14.93;5.80;;;17.10;99.90;;;;;;5066646;28;20123;-60
2023/06/08 08:31:23;;;;;;;12.43;5.72;;;17.20;99.90;;;;;;5070335;28;20036;-59
2023/06/08 08:33:49;;;;;;;16.60;6.15;;;17.30;99.90;;;;;;5066638;28;20557;-59
2023/06/08 08:36:14;;;;;;;18.95;6.63;;;17.30;99.90;;;;;;5077563;28;20041;-59
2023/06/08 08:38:40;;;;;;;12.15;6.40;;;17.40;99.90;;;;;;5072822;28;20520;-59
2023/06/08 08:41:09;;;;;;;10.07;6.63;;;17.50;99.90;;;;;;5074309;28;20068;-59
2023/06/08 08:43:50;;;;;;;14.93;5.97;;;17.50;99.90;;;;;;5066269;28;20041;-57
2023/06/08 08:46:17;;;;;;;15.52;6.45;;;17.60;99.90;;;;;;5073454;28;20032;-59
2023/06/08 08:48:43;;;;;;;37.13;8.40;;;17.70;99.90;;;;;;5072094;28;20032;-56
2023/06/08 08:51:19;;;;;;;18.65;6.60;;;17.80;99.90;;;;;;5071209;28;20028;-58
2023/06/08 08:53:49;;;;;;;15.80;6.22;;;17.90;99.90;;;;;;5079924;28;20044;-58
2023/06/08 08:56:20;;;;;;;13.05;5.65;;;18.00;99.90;;;;;;5077100;28;20115;-56
2023/06/08 08:58:48;;;;;;;12.25;6.10;;;18.10;99.90;;;;;;5084569;28;20040;-57
2023/06/08 09:01:14;;;;;;;11.63;5.38;;;18.20;99.90;;;;;;5076753;28;20386;-57
2023/06/08 09:03:40;;;;;;;10.05;5.22;;;18.30;99.90;;;;;;5079730;28;20036;-56
2023/06/08 09:06:06;;;;;;;10.57;5.78;;;18.30;99.90;;;;;;5073772;28;20541;-54
2023/06/08 09:08:32;;;;;;;11.10;4.05;;;18.50;99.90;;;;;;5065684;28;20083;-56
2023/06/08 09:11:06;;;;;;;12.05;4.93;;;18.50;99.90;;;;;;5071889;28;20072;-56
2023/06/08 09:13:32;;;;;;;9.35;5.32;;;18.60;99.50;;;;;;5065599;28;20047;-56
2023/06/08 09:16:19;;;;;;;10.27;4.85;;;18.70;99.80;;;;;;5071909;28;20068;-55
2023/06/08 09:18:46;;;;;;;17.55;4.15;;;18.70;99.90;;;;;;5076540;28;20458;-56
2023/06/08 09:21:29;;;;;;;13.38;4.63;;;18.90;99.40;;;;;;5060884;28;20083;-53
2023/06/08 09:24:11;;;;;;;10.00;4.82;;;19.00;99.60;;;;;;5056184;28;20055;-55
2023/06/08 09:26:51;;;;;;;14.85;4.70;;;19.10;98.90;;;;;;5063227;28;20040;-55
2023/06/08 09:29:41;;;;;;;18.02;4.40;;;19.20;99.20;;;;;;5064757;28;20060;-53
2023/06/08 09:32:09;;;;;;;8.90;3.63;;;19.40;99.50;;;;;;5064831;28;20425;-56
2023/06/08 09:34:55;;;;;;;10.38;3.75;;;19.50;98.90;;;;;;5070053;28;20032;-55
2023/06/08 09:37:37;;;;;;;9.98;4.50;;;19.60;98.20;;;;;;5057426;28;20412;-55
2023/06/08 09:40:09;;;;;;;10.38;4.72;;;19.70;98.30;;;;;;5056380;28;20043;-53
2023/06/08 09:42:50;;;;;;;7.50;3.65;;;19.80;98.10;;;;;;5055018;28;20112;-56
2023/06/08 09:45:17;;;;;;;8.48;3.60;;;19.90;97.70;;;;;;5055819;28;20032;-54
2023/06/08 09:47:43;;;;;;;11.88;3.95;;;20.00;97.40;;;;;;5068318;28;20402;-54
2023/06/08 09:50:10;;;;;;;;;;;20.10;97.40;;;;;;5070659;28;20037;-57
2023/06/08 09:52:37;;;;;;;19.93;4.70;;;20.20;97.30;;;;;;5056321;28;19916;-55
2023/06/08 09:55:03;;;;;;;7.15;3.55;;;20.20;97.10;;;;;;5062406;28;20278;-54
2023/06/08 09:57:36;;;;;;;16.90;4.65;;;20.20;96.50;;;;;;5056109;28;20037;-56
2023/06/08 10:02:42;;;;;;;11.02;3.95;;;20.20;96.50;;;;;;5052119;28;20052;-56
2023/06/08 10:05:10;;;;;;;14.82;4.75;;;20.20;96.30;;;;;;5064632;28;20086;-56
2023/06/08 10:07:37;;;;;;;8.38;3.40;;;20.20;96.00;;;;;;5055540;28;20374;-55
2023/06/08 10:10:12;;;;;;;6.70;3.20;;;20.30;96.10;;;;;;5059575;28;20524;-55
2023/06/08 10:12:38;;;;;;;12.00;3.55;;;20.30;95.80;;;;;;5060052;28;20040;-52
2023/06/08 10:15:05;;;;;;;10.85;3.83;;;20.30;95.90;;;;;;5061236;28;20433;-53
2023/06/08 10:17:33;;;;;;;7.72;2.60;;;20.30;95.70;;;;;;5053700;28;20401;-52
2023/06/08 10:19:59;;;;;;;5.45;3.00;;;20.30;95.60;;;;;;5064230;28;20411;-52
2023/06/08 10:22:25;;;;;;;;;;;20.40;95.50;;;;;;5051192;28;20044;-54
2023/06/08 10:24:51;;;;;;;12.02;3.00;;;20.40;95.30;;;;;;5050165;28;19921;-53
2023/06/08 10:27:18;;;;;;;;;;;20.50;95.90;;;;;;5052885;28;20041;-54
2023/06/08 10:30:03;;;;;;;10.38;3.38;;;20.60;95.10;;;;;;5065741;28;19921;-51
2023/06/08 10:32:38;;;;;;;9.00;2.80;;;20.70;95.20;;;;;;5052305;28;20139;-52
2023/06/08 10:35:06;;;;;;;8.93;3.28;;;20.90;95.40;;;;;;5061271;28;20071;-51
2023/06/08 10:37:33;;;;;;;9.05;3.42;;;21.00;95.20;;;;;;5057060;28;20039;-54
2023/06/08 10:40:06;;;;;;;7.47;3.03;;;21.10;95.20;;;;;;5050136;28;20036;-52
2023/06/08 10:42:32;;;;;;;8.55;3.40;;;21.10;95.30;;;;;;5051076;28;20052;-54
2023/06/08 10:44:58;;;;;;;;;;;21.20;95.60;;;;;;5063468;28;20048;-54
2023/06/08 10:47:24;;;;;;;9.93;3.47;;;21.30;94.90;;;;;;5059804;28;20011;-54
2023/06/08 10:49:58;;;;;;;8.52;3.03;;;21.40;95.00;;;;;;5052601;28;20036;-52
2023/06/08 10:52:25;;;;;;;11.88;3.28;;;21.50;95.20;;;;;;5051232;28;20051;-53
2023/06/08 10:55:11;;;;;;;12.02;3.38;;;21.60;95.00;;;;;;5065540;28;20466;-54
2023/06/08 10:57:52;;;;;;;13.80;3.42;;;21.70;94.80;;;;;;5081378;28;20114;-56
2023/06/08 11:00:24;;;;;;;8.32;3.13;;;21.80;95.00;;;;;;5047817;28;20052;-54
2023/06/08 11:02:51;;;;;;;12.13;3.67;;;21.90;95.00;;;;;;5049772;28;20052;-52
2023/06/08 11:05:17;;;;;;;21.20;3.90;;;22.00;94.70;;;;;;5057741;28;20126;-52
2023/06/08 11:07:43;;;;;;;98.65;8.52;;;22.10;94.80;;;;;;5050515;28;20040;-51
2023/06/08 11:10:08;;;;;;;;;;;22.10;93.80;;;;;;5053928;28;20033;-54
2023/06/08 11:12:34;;;;;;;11.63;3.55;;;22.20;93.40;;;;;;5050904;28;19917;-51
2023/06/08 11:15:00;;;;;;;;;;;22.20;94.00;;;;;;5056908;28;20039;-52
2023/06/08 11:17:26;;;;;;;12.35;3.28;;;22.20;93.50;;;;;;5062723;28;19916;-52
2023/06/08 11:19:52;;;;;;;6.32;2.60;;;22.30;93.50;;;;;;5051946;28;20044;-53
2023/06/08 11:22:18;;;;;;;;;;;22.40;93.80;;;;;;5049241;28;20041;-54
2023/06/08 11:24:44;;;;;;;5.78;3.05;;;22.50;94.20;;;;;;5059815;28;20145;-54
2023/06/08 11:27:19;;;;;;;8.25;3.47;;;22.60;93.70;;;;;;5058497;28;20068;-52
2023/06/08 11:29:46;;;;;;;10.20;3.45;;;22.70;93.40;;;;;;5057046;28;20539;-51
2023/06/08 11:32:16;;;;;;;9.13;4.07;;;22.80;94.20;;;;;;5054319;28;20541;-54
2023/06/08 11:34:45;;;;;;;7.43;3.55;;;22.90;94.00;;;;;;5062324;28;20473;-52
2023/06/08 11:37:17;;;;;;;39.17;5.45;;;23.00;93.50;;;;;;5066582;28;20498;-54
2023/06/08 11:39:44;;;;;;;22.95;4.45;;;23.10;93.30;;;;;;5057706;28;20115;-52
2023/06/08 11:42:10;;;;;;;25.73;3.70;;;23.20;93.30;;;;;;5059440;28;20065;-54
2023/06/08 11:44:35;;;;;;;;;;;23.30;93.50;;;;;;5058185;28;20491;-53
2023/06/08 11:47:02;;;;;;;5.40;3.03;;;23.30;92.70;;;;;;5066419;28;19920;-54
2023/06/08 11:49:51;;;;;;;16.40;3.50;;;23.30;92.80;;;;;;5057389;28;20398;-53
2023/06/08 11:52:17;;;;;;;21.63;3.90;;;23.30;93.20;;;;;;5052650;28;20539;-54
2023/06/08 11:54:43;;;;;;;7.50;3.53;;;23.40;93.30;;;;;;5060719;28;20036;-55
2023/06/08 11:57:09;;;;;;;10.35;3.53;;;23.50;93.10;;;;;;5049785;28;20064;-49
2023/06/08 11:59:41;;;;;;;11.13;3.55;;;23.50;93.00;;;;;;5053653;28;20674;-52
2023/06/08 12:02:10;;;;;;;9.63;3.58;;;23.60;92.70;;;;;;5056363;28;20109;-51
2023/06/08 12:04:36;;;;;;;9.75;3.50;;;23.60;93.10;;;;;;5048676;28;20067;-50
2023/06/08 12:07:18;;;;;;;9.10;3.25;;;23.70;92.60;;;;;;5068247;28;20060;-50
2023/06/08 12:09:51;;;;;;;7.32;2.85;;;23.70;92.20;;;;;;5060112;28;20087;-50
2023/06/08 12:12:16;;;;;;;9.57;2.75;;;23.70;91.90;;;;;;5051219;28;20036;-52
2023/06/08 12:14:43;;;;;;;9.32;3.35;;;23.80;92.40;;;;;;5055407;28;20503;-52
2023/06/08 12:17:14;;;;;;;4.70;2.53;;;23.80;92.30;;;;;;5066286;28;20035;-51
2023/06/08 12:19:42;;;;;;;6.63;2.88;;;23.90;92.10;;;;;;5060741;28;20037;-54
2023/06/08 12:22:08;;;;;;;14.30;3.15;;;23.90;92.40;;;;;;5061899;28;20506;-53
2023/06/08 12:24:34;;;;;;;13.50;4.05;;;24.00;92.00;;;;;;5058870;28;20044;-52
2023/06/08 12:26:59;;;;;;;9.98;4.03;;;24.00;92.20;;;;;;5063662;28;20035;-51
2023/06/08 12:29:25;;;;;;;8.57;3.20;;;24.10;92.30;;;;;;5054308;28;20115;-52
2023/06/08 12:31:50;;;;;;;10.88;3.63;;;24.10;92.10;;;;;;5053939;28;20052;-52
2023/06/08 12:34:17;;;;;;;8.68;2.92;;;24.20;92.10;;;;;;5058606;28;20694;-51
2023/06/08 12:36:43;;;;;;;9.13;3.17;;;24.20;91.70;;;;;;5052003;28;20036;-51
2023/06/08 12:39:08;;;;;;;8.73;3.35;;;24.20;91.40;;;;;;5064570;28;20111;-51
2023/06/08 12:41:34;;;;;;;7.40;3.22;;;24.30;91.90;;;;;;5057625;28;20102;-51
2023/06/08 12:43:59;;;;;;;15.68;3.97;;;24.40;91.30;;;;;;5049101;28;20413;-52
2023/06/08 12:46:25;;;;;;;5.97;2.90;;;24.40;91.40;;;;;;5057046;28;20045;-53
2023/06/08 12:48:53;;;;;;;7.60;3.50;;;24.40;91.40;;;;;;5065614;28;20037;-52
2023/06/08 12:51:18;;;;;;;9.73;3.63;;;24.50;91.50;;;;;;5067020;28;20041;-53
2023/06/08 12:53:46;;;;;;;10.70;3.92;;;24.50;91.40;;;;;;5059871;28;20036;-51
2023/06/08 12:56:11;;;;;;;11.50;3.33;;;24.60;90.90;;;;;;5060523;28;20390;-54
2023/06/08 12:58:37;;;;;;;9.57;4.15;;;24.60;90.80;;;;;;5055602;28;20048;-52
2023/06/08 13:01:02;;;;;;;6.03;2.50;;;24.60;90.60;;;;;;5065830;28;20049;-54
2023/06/08 13:03:28;;;;;;;13.40;3.38;;;24.60;90.40;;;;;;5059379;28;20060;-50
2023/06/08 13:05:54;;;;;;;15.75;4.35;;;24.70;90.30;;;;;;5051882;28;20040;-50
2023/06/08 13:08:19;;;;;;;13.45;3.42;;;24.70;90.00;;;;;;5059896;28;20029;-50
2023/06/08 13:10:45;;;;;;;9.00;3.53;;;24.70;90.40;;;;;;5053579;28;20037;-50
2023/06/08 13:13:11;;;;;;;7.25;3.35;;;24.70;90.10;;;;;;5057142;28;20043;-51
2023/06/08 13:15:38;;;;;;;5.18;2.88;;;24.80;90.50;;;;;;5053851;28;20048;-50
2023/06/08 13:18:06;;;;;;;11.38;3.58;;;24.80;90.50;;;;;;5060119;28;20437;-52
2023/06/08 13:20:32;;;;;;;10.43;3.70;;;24.80;89.90;;;;;;5054496;28;20072;-52
2023/06/08 13:22:58;;;;;;;9.40;3.42;;;24.80;89.30;;;;;;5058869;28;20094;-53
2023/06/08 13:25:24;;;;;;;12.60;3.60;;;24.80;89.80;;;;;;5055467;28;20040;-51
2023/06/08 13:27:50;;;;;;;10.65;3.75;;;24.90;89.60;;;;;;5053678;28;20028;-50
2023/06/08 13:30:16;;;;;;;8.55;3.63;;;24.90;89.60;;;;;;5066254;28;20040;-52
2023/06/08 13:32:42;;;;;;;11.65;3.80;;;24.90;89.60;;;;;;5067282;28;20087;-52
2023/06/08 13:35:07;;;;;;;7.30;3.25;;;24.90;89.40;;;;;;5063500;28;20705;-52
2023/06/08 13:37:33;;;;;;;10.68;4.07;;;25.00;89.20;;;;;;5053241;28;20052;-50
2023/06/08 13:39:59;;;;;;;7.18;3.38;;;25.00;89.00;;;;;;5058381;28;20064;-50
2023/06/08 13:42:25;;;;;;;7.50;3.25;;;25.00;88.60;;;;;;5064265;28;20041;-52